createdAt,value
2019-03-24T00:00:12.937Z,2.47
2019-03-24T00:02:41.306Z,5.37
2019-03-24T00:05:09.846Z,3.00
2019-03-24T00:07:38.201Z,2.00
2019-03-24T00:10:09.294Z,2.93
2019-03-24T00:12:37.663Z,2.33
2019-03-24T00:15:07.602Z,2.10
2019-03-24T00:17:36.064Z,1.80
2019-03-24T00:20:06.575Z,1.90
2019-03-24T00:22:34.944Z,3.87
2019-03-24T00:25:04.090Z,3.40
2019-03-24T00:27:32.457Z,2.97
2019-03-24T00:30:00.931Z,1.80
2019-03-24T00:32:29.356Z,2.33
2019-03-24T00:34:57.733Z,3.00
2019-03-24T00:37:26.194Z,2.27
2019-03-24T00:39:54.563Z,3.20
2019-03-24T00:42:22.919Z,2.47
2019-03-24T00:44:51.281Z,4.13
2019-03-24T00:47:19.650Z,2.93
2019-03-24T00:49:48.041Z,2.27
2019-03-24T00:52:16.434Z,2.97
2019-03-24T00:54:45.206Z,1.80
2019-03-24T00:57:13.565Z,1.80
2019-03-24T00:59:41.940Z,3.83
2019-03-24T01:02:10.359Z,2.50
2019-03-24T01:04:38.733Z,4.57
2019-03-24T01:07:07.189Z,2.83
2019-03-24T01:09:35.601Z,3.33
2019-03-24T01:12:04.038Z,5.33
2019-03-24T01:14:32.420Z,5.60
2019-03-24T01:17:00.775Z,2.70
2019-03-24T01:19:29.127Z,3.70
2019-03-24T01:21:57.574Z,3.20
2019-03-24T01:24:25.937Z,2.60
2019-03-24T01:26:54.313Z,3.10
2019-03-24T01:29:22.739Z,2.23
2019-03-24T01:31:51.098Z,5.27
2019-03-24T01:34:19.482Z,2.67
2019-03-24T01:36:47.857Z,4.07
2019-03-24T01:39:16.256Z,2.53
2019-03-24T01:41:44.617Z,2.20
2019-03-24T01:44:12.989Z,3.30
2019-03-24T01:46:41.331Z,2.70
2019-03-24T01:49:09.738Z,2.00
2019-03-24T01:51:38.137Z,1.97
2019-03-24T01:54:06.613Z,3.10
2019-03-24T01:56:35.005Z,1.77
2019-03-24T01:59:03.382Z,1.90
2019-03-24T02:01:31.758Z,2.07
2019-03-24T02:04:00.146Z,2.10
2019-03-24T02:06:28.532Z,2.00
2019-03-24T02:08:56.892Z,5.27
2019-03-24T02:11:25.294Z,1.67
2019-03-24T02:13:53.669Z,1.70
2019-03-24T02:16:22.022Z,2.57
2019-03-24T02:18:50.411Z,2.00
2019-03-24T02:21:18.805Z,3.27
2019-03-24T02:23:47.209Z,1.80
2019-03-24T02:26:15.594Z,3.10
2019-03-24T02:28:43.982Z,1.70
2019-03-24T02:31:12.354Z,2.20
2019-03-24T02:33:40.700Z,1.97
2019-03-24T02:36:09.104Z,1.30
2019-03-24T02:38:37.461Z,2.83
2019-03-24T02:41:07.645Z,2.70
2019-03-24T02:43:35.965Z,1.20
2019-03-24T02:46:04.394Z,1.80
2019-03-24T02:48:32.763Z,1.60
2019-03-24T02:51:01.162Z,1.97
2019-03-24T02:53:29.520Z,2.10
2019-03-24T02:55:57.899Z,1.60
2019-03-24T02:58:26.288Z,1.57
2019-03-24T03:00:54.661Z,2.57
2019-03-24T03:03:23.013Z,2.37
2019-03-24T03:05:51.382Z,1.47
2019-03-24T03:08:19.765Z,1.70
2019-03-24T03:10:48.144Z,1.43
2019-03-24T03:13:16.536Z,1.20
2019-03-24T03:15:44.907Z,2.17
2019-03-24T03:18:13.294Z,4.47
2019-03-24T03:20:41.699Z,1.50
2019-03-24T03:23:10.155Z,1.70
2019-03-24T03:25:38.544Z,1.27
2019-03-24T03:28:08.547Z,2.13
2019-03-24T03:30:36.948Z,2.07
2019-03-24T03:33:05.437Z,3.40
2019-03-24T03:35:33.804Z,2.00
2019-03-24T03:38:02.163Z,3.17
2019-03-24T03:40:30.563Z,4.03
2019-03-24T03:42:58.906Z,4.23
2019-03-24T03:45:28.720Z,2.80
2019-03-24T03:47:57.261Z,2.27
2019-03-24T03:50:25.617Z,1.37
2019-03-24T03:52:54.146Z,1.33
2019-03-24T03:55:22.640Z,1.80
2019-03-24T03:57:51.183Z,1.77
2019-03-24T04:00:22.703Z,1.50
2019-03-24T04:02:51.086Z,2.03
2019-03-24T04:05:19.448Z,1.50
2019-03-24T04:07:47.817Z,1.50
2019-03-24T04:10:16.176Z,1.30
2019-03-24T04:12:44.581Z,2.07
2019-03-24T04:15:12.994Z,1.67
2019-03-24T04:17:41.381Z,2.03
2019-03-24T04:20:09.913Z,3.30
2019-03-24T04:22:38.278Z,1.73
2019-03-24T04:25:07.503Z,1.20
2019-03-24T04:27:37.544Z,1.70
2019-03-24T04:30:06.834Z,2.33
2019-03-24T04:32:35.204Z,1.60
2019-03-24T04:35:04.864Z,2.30
2019-03-24T04:37:33.273Z,1.77
2019-03-24T04:40:01.593Z,2.60
2019-03-24T04:42:29.972Z,1.93
2019-03-24T04:44:58.351Z,1.50
2019-03-24T04:47:26.721Z,2.90
2019-03-24T04:49:55.096Z,1.30
2019-03-24T04:52:23.511Z,1.80
2019-03-24T04:54:53.486Z,2.87
2019-03-24T04:57:22.037Z,2.93
2019-03-24T04:59:50.472Z,4.23
2019-03-24T05:02:18.871Z,2.10
2019-03-24T05:04:47.245Z,2.17
2019-03-24T05:07:15.632Z,2.03
2019-03-24T05:09:44.166Z,1.93
2019-03-24T05:12:12.537Z,2.47
2019-03-24T05:14:40.919Z,1.60
2019-03-24T05:17:09.311Z,2.57
2019-03-24T05:19:37.665Z,2.23
2019-03-24T05:22:06.101Z,3.97
2019-03-24T05:24:34.476Z,3.63
2019-03-24T05:27:02.873Z,3.10
2019-03-24T05:29:31.392Z,2.00
2019-03-24T05:31:59.752Z,2.37
2019-03-24T05:34:28.126Z,1.73
2019-03-24T05:36:56.498Z,1.60
2019-03-24T05:39:24.894Z,2.23
2019-03-24T05:41:53.279Z,1.30
2019-03-24T05:44:21.651Z,1.50
2019-03-24T05:46:50.026Z,2.60
2019-03-24T05:49:18.414Z,3.43
2019-03-24T05:51:46.801Z,1.47
2019-03-24T05:54:15.184Z,1.30
2019-03-24T05:56:43.712Z,1.60
2019-03-24T05:59:12.116Z,1.70
2019-03-24T06:01:40.495Z,3.00
2019-03-24T06:04:08.963Z,1.67
2019-03-24T06:06:37.372Z,1.63
2019-03-24T06:09:06.484Z,2.10
2019-03-24T06:11:34.925Z,3.10
2019-03-24T06:14:03.341Z,4.03
2019-03-24T06:16:31.713Z,3.20
2019-03-24T06:19:00.076Z,2.43
2019-03-24T06:21:28.646Z,2.53
2019-03-24T06:23:57.008Z,2.47
2019-03-24T06:26:28.048Z,4.53
2019-03-24T06:28:56.419Z,4.60
2019-03-24T06:31:24.764Z,2.70
2019-03-24T06:33:53.161Z,4.03
2019-03-24T06:36:21.542Z,1.87
2019-03-24T06:38:49.926Z,11.30
2019-03-24T06:41:18.305Z,2.47
2019-03-24T06:43:46.701Z,2.13
2019-03-24T06:46:15.145Z,3.90
2019-03-24T06:48:43.528Z,2.33
2019-03-24T06:51:11.875Z,2.13
2019-03-24T06:53:40.285Z,5.43
2019-03-24T06:56:08.613Z,2.83
2019-03-24T06:58:36.974Z,3.53
2019-03-24T07:01:05.422Z,4.00
2019-03-24T07:03:33.840Z,2.20
2019-03-24T07:06:03.995Z,2.87
2019-03-24T07:08:33.045Z,2.40
2019-03-24T07:11:01.437Z,2.63
2019-03-24T07:13:29.967Z,2.90
2019-03-24T07:15:58.371Z,4.93
2019-03-24T07:18:26.744Z,11.57
2019-03-24T07:20:55.182Z,7.30
2019-03-24T07:23:23.581Z,7.00
2019-03-24T07:25:52.176Z,9.73
2019-03-24T07:28:20.522Z,15.70
2019-03-24T07:30:48.884Z,13.87
2019-03-24T07:33:17.292Z,9.10
2019-03-24T07:35:45.735Z,11.17
2019-03-24T07:38:14.086Z,7.67
2019-03-24T07:40:42.611Z,9.23
2019-03-24T07:43:10.985Z,10.23
2019-03-24T07:45:39.344Z,8.37
2019-03-24T07:48:07.706Z,6.37
2019-03-24T07:50:36.072Z,10.47
2019-03-24T07:53:04.521Z,6.53
2019-03-24T07:55:33.043Z,9.13
2019-03-24T07:58:01.396Z,3.63
2019-03-24T08:00:34.538Z,5.70
2019-03-24T08:03:02.996Z,4.73
2019-03-24T08:05:31.378Z,6.77
2019-03-24T08:07:59.765Z,5.07
2019-03-24T08:10:28.231Z,5.07
2019-03-24T08:12:56.763Z,4.40
2019-03-24T08:15:25.214Z,10.70
2019-03-24T08:17:53.626Z,21.60
2019-03-24T08:20:22.123Z,22.13
2019-03-24T08:22:50.541Z,18.30
2019-03-24T08:25:19.213Z,14.90
2019-03-24T08:27:50.090Z,8.87
2019-03-24T08:30:21.672Z,3.57
2019-03-24T08:32:50.021Z,2.70
2019-03-24T08:35:18.376Z,4.03
2019-03-24T08:37:46.759Z,3.27
2019-03-24T08:40:15.152Z,12.13
2019-03-24T08:42:43.551Z,4.97
2019-03-24T08:45:15.057Z,2.23
2019-03-24T08:47:43.431Z,1.10
2019-03-24T08:50:11.832Z,2.63
2019-03-24T08:52:40.189Z,1.47
2019-03-24T08:55:08.554Z,2.03
2019-03-24T08:57:36.941Z,1.00
2019-03-24T09:00:07.176Z,1.80
2019-03-24T09:02:35.541Z,1.00
2019-03-24T09:05:05.586Z,1.30
2019-03-24T09:07:33.938Z,1.10
2019-03-24T09:10:02.325Z,2.17
2019-03-24T09:12:31.319Z,0.90
2019-03-24T09:15:00.044Z,1.73
2019-03-24T09:17:28.432Z,1.30
2019-03-24T09:19:57.238Z,2.27
2019-03-24T09:22:25.663Z,2.67
2019-03-24T09:24:53.999Z,4.13
2019-03-24T09:27:22.317Z,2.30
2019-03-24T09:29:50.663Z,1.30
2019-03-24T09:32:19.048Z,1.57
2019-03-24T09:34:47.431Z,1.37
2019-03-24T09:37:15.828Z,1.97
2019-03-24T09:39:44.205Z,1.50
2019-03-24T09:42:12.568Z,2.40
2019-03-24T09:44:40.926Z,1.30
2019-03-24T09:47:09.300Z,2.23
2019-03-24T09:49:37.649Z,2.63
2019-03-24T09:52:06.015Z,2.93
2019-03-24T09:54:34.498Z,2.77
2019-03-24T09:57:02.864Z,3.60
2019-03-24T09:59:31.248Z,2.57
2019-03-24T10:01:59.627Z,2.70
2019-03-24T10:04:28.005Z,2.07
2019-03-24T10:06:56.398Z,1.67
2019-03-24T10:09:24.782Z,2.30
2019-03-24T10:11:53.115Z,3.03
2019-03-24T10:14:21.480Z,2.27
2019-03-24T10:16:49.848Z,3.73
2019-03-24T10:19:18.221Z,3.37
2019-03-24T10:21:46.611Z,3.20
2019-03-24T10:24:15.012Z,3.03
2019-03-24T10:26:43.377Z,3.90
2019-03-24T10:29:11.760Z,3.97
2019-03-24T10:31:42.501Z,4.63
2019-03-24T10:34:10.215Z,2.93
2019-03-24T10:36:38.606Z,3.20
2019-03-24T10:39:07.477Z,2.60
2019-03-24T10:41:35.946Z,3.17
2019-03-24T10:44:04.324Z,3.57
2019-03-24T10:46:32.754Z,4.77
2019-03-24T10:49:01.163Z,4.80
2019-03-24T10:51:29.509Z,4.17
2019-03-24T10:53:57.949Z,2.53
2019-03-24T10:56:26.358Z,3.77
2019-03-24T10:58:54.755Z,2.93
2019-03-24T11:01:23.175Z,2.40
2019-03-24T11:03:51.577Z,3.00
2019-03-24T11:06:20.020Z,2.73
2019-03-24T11:08:48.430Z,2.47
2019-03-24T11:11:16.870Z,2.83
2019-03-24T11:13:45.224Z,3.67
2019-03-24T11:16:13.581Z,3.33
2019-03-24T11:18:41.989Z,4.00
2019-03-24T11:21:10.336Z,6.83
2019-03-24T11:23:38.700Z,6.37
2019-03-24T11:26:07.080Z,7.23
2019-03-24T11:28:35.447Z,7.00
2019-03-24T11:31:03.813Z,8.97
2019-03-24T11:33:32.228Z,8.50
2019-03-24T11:36:00.610Z,8.83
2019-03-24T11:38:28.996Z,10.03
2019-03-24T11:40:57.352Z,9.20
2019-03-24T11:43:25.716Z,8.67
2019-03-24T11:45:54.079Z,9.17
2019-03-24T11:48:22.435Z,9.70
2019-03-24T11:50:50.834Z,9.30
2019-03-24T11:53:19.204Z,10.83
2019-03-24T11:55:47.582Z,13.57
2019-03-24T11:58:15.945Z,13.33
2019-03-24T12:00:44.388Z,12.87
2019-03-24T12:03:12.775Z,12.80
2019-03-24T12:05:41.258Z,14.13
2019-03-24T12:08:09.679Z,11.83
2019-03-24T12:10:38.103Z,12.77
2019-03-24T12:13:06.536Z,13.57
2019-03-24T12:15:34.891Z,14.30
2019-03-24T12:18:03.306Z,18.27
2019-03-24T12:20:31.822Z,13.00
2019-03-24T12:23:00.256Z,13.70
2019-03-24T12:25:28.651Z,17.50
2019-03-24T12:27:56.987Z,14.70
2019-03-24T12:30:25.382Z,14.03
2019-03-24T12:32:53.813Z,14.67
2019-03-24T12:35:22.174Z,13.17
2019-03-24T12:37:50.573Z,13.53
2019-03-24T12:40:18.970Z,16.07
2019-03-24T12:42:47.351Z,16.57
2019-03-24T12:45:16.003Z,16.53
2019-03-24T12:47:44.401Z,14.97
2019-03-24T12:50:13.116Z,16.23
2019-03-24T12:52:41.521Z,17.07
2019-03-24T12:55:10.243Z,15.90
2019-03-24T12:57:38.630Z,14.70
2019-03-24T13:00:11.519Z,14.73
2019-03-24T13:02:39.860Z,15.90
2019-03-24T13:05:09.373Z,18.33
2019-03-24T13:07:37.748Z,16.07
2019-03-24T13:10:06.666Z,18.33
2019-03-24T13:12:35.043Z,17.10
2019-03-24T13:15:05.122Z,18.70
2019-03-24T13:17:33.470Z,17.90
2019-03-24T13:20:01.832Z,18.73
2019-03-24T13:22:30.310Z,17.27
2019-03-24T13:24:58.672Z,17.83
2019-03-24T13:27:27.108Z,19.23
2019-03-24T13:29:55.496Z,19.63
2019-03-24T13:32:25.018Z,17.57
2019-03-24T13:34:53.523Z,19.77
2019-03-24T13:37:21.897Z,18.43
2019-03-24T13:39:50.285Z,20.07
2019-03-24T13:42:18.651Z,16.77
2019-03-24T13:44:47.022Z,20.73
2019-03-24T13:47:15.433Z,19.83
2019-03-24T13:49:43.810Z,19.43
2019-03-24T13:52:12.182Z,20.10
2019-03-24T13:54:40.832Z,18.77
2019-03-24T13:57:24.384Z,18.57
2019-03-24T13:59:52.796Z,19.70
2019-03-24T14:02:21.174Z,20.77
2019-03-24T14:04:49.558Z,21.60
2019-03-24T14:07:17.939Z,18.27
2019-03-24T14:09:46.328Z,20.80
2019-03-24T14:12:14.695Z,20.67
2019-03-24T14:14:43.303Z,19.70
2019-03-24T14:17:11.689Z,20.17
2019-03-24T14:19:40.159Z,21.47
2019-03-24T14:22:08.594Z,21.60
2019-03-24T14:24:36.987Z,25.33
2019-03-24T14:27:20.337Z,20.53
2019-03-24T14:29:48.705Z,20.40
2019-03-24T14:32:17.069Z,24.33
2019-03-24T14:34:45.460Z,22.03
2019-03-24T14:37:13.820Z,17.00
2019-03-24T14:39:42.187Z,19.53
2019-03-24T14:42:10.593Z,16.93
2019-03-24T14:44:39.007Z,17.07
2019-03-24T14:47:07.409Z,18.33
2019-03-24T14:49:35.807Z,18.97
2019-03-24T14:52:04.262Z,18.80
2019-03-24T14:54:32.612Z,17.53
2019-03-24T14:57:11.105Z,17.97
2019-03-24T14:59:39.416Z,18.00
2019-03-24T15:02:07.791Z,17.80
2019-03-24T15:04:36.290Z,15.63
2019-03-24T15:07:04.784Z,19.73
2019-03-24T15:09:33.278Z,16.67
2019-03-24T15:12:01.709Z,17.17
2019-03-24T15:14:30.077Z,16.40
2019-03-24T15:16:58.452Z,19.83
2019-03-24T15:19:26.829Z,17.17
2019-03-24T15:21:55.217Z,18.50
2019-03-24T15:24:23.572Z,17.07
2019-03-24T15:26:51.928Z,18.07
2019-03-24T15:29:20.297Z,16.57
2019-03-24T15:31:48.669Z,14.77
2019-03-24T15:34:17.044Z,14.00
2019-03-24T15:36:45.448Z,15.10
2019-03-24T15:39:13.792Z,16.80
2019-03-24T15:41:42.352Z,18.27
2019-03-24T15:44:10.726Z,17.00
2019-03-24T15:46:39.267Z,15.47
2019-03-24T15:49:07.631Z,17.57
2019-03-24T15:51:36.020Z,16.23
2019-03-24T15:54:04.401Z,14.83
2019-03-24T15:56:32.763Z,15.37
2019-03-24T15:59:01.175Z,15.37
2019-03-24T16:01:29.565Z,14.33
2019-03-24T16:03:57.904Z,13.20
2019-03-24T16:06:26.345Z,13.93
2019-03-24T16:08:54.726Z,15.77
2019-03-24T16:11:23.096Z,16.47
2019-03-24T16:13:51.497Z,16.03
2019-03-24T16:16:19.867Z,18.60
2019-03-24T16:18:48.248Z,18.13
2019-03-24T16:21:27.128Z,20.90
2019-03-24T16:23:46.788Z,22.77
2019-03-24T16:26:15.171Z,17.70
2019-03-24T16:28:43.541Z,17.50
2019-03-24T16:31:11.899Z,14.40
2019-03-24T16:33:40.278Z,15.37
2019-03-24T16:36:08.651Z,15.43
2019-03-24T16:38:37.077Z,14.00
2019-03-24T16:41:05.454Z,14.13
2019-03-24T16:43:33.865Z,16.10
2019-03-24T16:46:02.295Z,14.33
2019-03-24T16:48:36.704Z,15.73
2019-03-24T16:51:00.792Z,13.67
2019-03-24T16:53:29.157Z,14.00
2019-03-24T16:55:57.540Z,13.77
2019-03-24T16:58:25.918Z,13.17
2019-03-24T17:00:54.364Z,13.87
2019-03-24T17:03:22.750Z,14.93
2019-03-24T17:05:51.116Z,13.40
2019-03-24T17:08:19.477Z,9.43
2019-03-24T17:10:48.954Z,10.43
2019-03-24T17:13:17.300Z,8.67
2019-03-24T17:15:45.764Z,9.97
2019-03-24T17:18:14.192Z,12.67
2019-03-24T17:20:42.565Z,11.03
2019-03-24T17:23:10.999Z,9.67
2019-03-24T17:25:39.343Z,10.70
2019-03-24T17:28:07.736Z,10.87
2019-03-24T17:30:36.082Z,10.43
2019-03-24T17:33:04.481Z,10.57
2019-03-24T17:35:32.897Z,10.37
2019-03-24T17:38:01.540Z,9.40
2019-03-24T17:40:29.882Z,9.97
2019-03-24T17:42:58.435Z,12.97
2019-03-24T17:45:26.826Z,13.83
2019-03-24T17:47:55.201Z,15.03
2019-03-24T17:50:23.575Z,16.53
2019-03-24T17:52:51.960Z,17.67
2019-03-24T17:55:27.508Z,16.20
2019-03-24T17:57:50.433Z,12.93
2019-03-24T18:00:24.566Z,15.97
2019-03-24T18:02:52.926Z,22.80
2019-03-24T18:05:21.472Z,15.83
2019-03-24T18:07:49.867Z,13.67
2019-03-24T18:10:18.214Z,15.53
2019-03-24T18:12:46.586Z,12.60
2019-03-24T18:15:15.111Z,14.27
2019-03-24T18:17:43.530Z,14.67
2019-03-24T18:20:13.902Z,13.20
2019-03-24T18:22:42.268Z,15.77
2019-03-24T18:25:10.817Z,15.77
2019-03-24T18:27:39.291Z,16.07
2019-03-24T18:30:10.375Z,13.63
2019-03-24T18:32:38.844Z,16.73
2019-03-24T18:35:10.605Z,15.47
2019-03-24T18:37:39.022Z,14.97
2019-03-24T18:40:10.631Z,12.87
2019-03-24T18:42:39.094Z,15.27
2019-03-24T18:45:09.756Z,13.30
2019-03-24T18:47:39.407Z,13.73
2019-03-24T18:50:09.637Z,16.10
2019-03-24T18:52:38.067Z,15.30
2019-03-24T18:55:07.667Z,13.33
2019-03-24T18:57:36.128Z,10.87
2019-03-24T19:00:14.425Z,15.03
2019-03-24T19:02:42.817Z,11.17
2019-03-24T19:05:11.243Z,13.57
2019-03-24T19:07:39.610Z,10.47
2019-03-24T19:10:09.382Z,12.13
2019-03-24T19:12:37.993Z,11.60
2019-03-24T19:15:08.466Z,16.50
2019-03-24T19:17:37.021Z,15.53
2019-03-24T19:20:06.441Z,13.47
2019-03-24T19:22:34.791Z,13.00
2019-03-24T19:25:07.249Z,15.93
2019-03-24T19:27:35.575Z,14.90
2019-03-24T19:30:06.715Z,17.40
2019-03-24T19:32:35.105Z,14.63
2019-03-24T19:35:04.733Z,15.50
2019-03-24T19:37:33.381Z,12.70
2019-03-24T19:40:01.864Z,12.40
2019-03-24T19:42:30.312Z,15.03
2019-03-24T19:44:58.699Z,13.53
2019-03-24T19:47:27.090Z,13.97
2019-03-24T19:49:55.497Z,14.23
2019-03-24T19:52:23.898Z,14.17
2019-03-24T19:54:52.262Z,13.60
2019-03-24T19:57:20.641Z,12.90
2019-03-24T19:59:49.093Z,14.13
2019-03-24T20:02:17.525Z,14.13
2019-03-24T20:04:46.010Z,11.90
2019-03-24T20:07:14.389Z,14.90
2019-03-24T20:09:42.704Z,13.63
2019-03-24T20:12:11.115Z,15.00
2019-03-24T20:14:39.577Z,11.60
2019-03-24T20:17:08.274Z,14.53
2019-03-24T20:19:36.693Z,11.93
2019-03-24T20:22:05.082Z,11.43
2019-03-24T20:24:33.454Z,13.13
2019-03-24T20:27:01.884Z,12.93
2019-03-24T20:29:30.315Z,12.47
2019-03-24T20:31:58.729Z,15.90
2019-03-24T20:34:27.149Z,15.80
2019-03-24T20:36:55.545Z,13.63
2019-03-24T20:39:23.899Z,12.13
2019-03-24T20:41:52.535Z,13.80
2019-03-24T20:44:20.893Z,12.50
2019-03-24T20:46:49.364Z,15.93
2019-03-24T20:49:17.818Z,11.27
2019-03-24T20:51:46.361Z,13.10
2019-03-24T20:54:14.688Z,12.40
2019-03-24T20:56:43.258Z,12.60
2019-03-24T20:59:11.690Z,16.23
2019-03-24T21:01:40.140Z,13.63
2019-03-24T21:04:08.596Z,12.23
2019-03-24T21:06:36.983Z,15.40
2019-03-24T21:09:07.804Z,11.80
2019-03-24T21:11:36.174Z,14.03
2019-03-24T21:14:05.225Z,17.50
2019-03-24T21:16:33.620Z,14.07
2019-03-24T21:19:02.015Z,12.57
2019-03-24T21:21:30.399Z,14.73
2019-03-24T21:23:58.774Z,14.27
2019-03-24T21:26:27.138Z,14.00
2019-03-24T21:28:55.474Z,13.83
2019-03-24T21:31:23.860Z,14.90
2019-03-24T21:33:52.232Z,16.53
2019-03-24T21:36:20.799Z,15.37
2019-03-24T21:38:49.180Z,15.37
2019-03-24T21:41:17.549Z,16.33
2019-03-24T21:43:45.930Z,15.53
2019-03-24T21:46:14.309Z,16.87
2019-03-24T21:48:42.823Z,13.87
2019-03-24T21:51:11.199Z,17.50
2019-03-24T21:53:40.925Z,14.13
2019-03-24T21:56:09.787Z,15.00
2019-03-24T21:58:38.131Z,14.80
2019-03-24T22:01:06.516Z,13.30
2019-03-24T22:03:34.928Z,12.73
2019-03-24T22:06:03.297Z,14.37
2019-03-24T22:08:31.950Z,15.10
2019-03-24T22:11:00.313Z,12.30
2019-03-24T22:13:28.698Z,12.17
2019-03-24T22:15:57.108Z,16.47
2019-03-24T22:18:25.454Z,15.53
2019-03-24T22:20:53.822Z,13.90
2019-03-24T22:23:22.180Z,14.90
2019-03-24T22:25:50.569Z,15.33
2019-03-24T22:28:18.948Z,16.13
2019-03-24T22:30:47.324Z,14.97
2019-03-24T22:33:15.709Z,18.27
2019-03-24T22:35:44.082Z,15.37
2019-03-24T22:38:12.434Z,15.03
2019-03-24T22:40:40.795Z,13.77
2019-03-24T22:43:09.181Z,16.20
2019-03-24T22:45:37.629Z,15.03
2019-03-24T22:48:06.001Z,14.90
2019-03-24T22:50:34.399Z,14.57
2019-03-24T22:53:02.757Z,15.23
2019-03-24T22:55:31.119Z,15.73
2019-03-24T22:57:59.526Z,18.10
2019-03-24T23:00:35.149Z,14.70
2019-03-24T23:03:03.511Z,16.03
2019-03-24T23:05:31.889Z,17.53
2019-03-24T23:08:00.327Z,15.20
2019-03-24T23:10:28.723Z,16.53
2019-03-24T23:12:57.153Z,14.33
2019-03-24T23:15:25.532Z,16.23
2019-03-24T23:17:53.899Z,15.87
2019-03-24T23:20:22.270Z,15.40
2019-03-24T23:22:50.648Z,15.10
2019-03-24T23:25:19.028Z,17.73
2019-03-24T23:27:47.405Z,20.87
2019-03-24T23:30:16.414Z,17.57
2019-03-24T23:32:44.786Z,14.37
2019-03-24T23:35:13.178Z,18.40
2019-03-24T23:37:41.537Z,19.47
2019-03-24T23:40:10.133Z,18.57
2019-03-24T23:42:38.515Z,19.90
2019-03-24T23:45:08.296Z,16.30
2019-03-24T23:47:36.748Z,18.33
2019-03-24T23:50:07.091Z,16.57
2019-03-24T23:52:35.438Z,20.20
2019-03-24T23:55:04.401Z,16.73
2019-03-24T23:57:32.781Z,19.43
